sensor_id;sensor_type;location;lat;lon;timestamp;pressure;altitude;pressure_sealevel;temperature;humidity
40205;BME280;26963;42.666;23.366;2024-01-07T00:01:35;93458.88;;;8.14;71.85
40205;BME280;26963;42.666;23.366;2024-01-07T00:04:00;93444.28;;;7.94;71.58
40205;BME280;26963;42.666;23.366;2024-01-07T00:06:26;93429.09;;;8.12;71.60
40205;BME280;26963;42.666;23.366;2024-01-07T00:08:51;93438.03;;;8.25;70.84
40205;BME280;26963;42.666;23.366;2024-01-07T00:11:17;93425.03;;;8.32;69.62
40205;BME280;26963;42.666;23.366;2024-01-07T00:13:43;93429.72;;;8.27;71.08
40205;BME280;26963;42.666;23.366;2024-01-07T00:16:08;93440.56;;;8.48;71.04
40205;BME280;26963;42.666;23.366;2024-01-07T00:18:34;93376.28;;;7.88;71.62
40205;BME280;26963;42.666;23.366;2024-01-07T00:20:59;93453.84;;;8.30;72.32
40205;BME280;26963;42.666;23.366;2024-01-07T00:23:25;93378.16;;;8.05;71.59
40205;BME280;26963;42.666;23.366;2024-01-07T00:25:50;93428.16;;;8.52;71.17
40205;BME280;26963;42.666;23.366;2024-01-07T00:28:16;93343.09;;;7.94;69.33
40205;BME280;26963;42.666;23.366;2024-01-07T00:30:42;93384.25;;;8.32;69.77
40205;BME280;26963;42.666;23.366;2024-01-07T00:33:07;93411.72;;;8.50;69.40
40205;BME280;26963;42.666;23.366;2024-01-07T00:35:33;93412.16;;;8.52;70.10
40205;BME280;26963;42.666;23.366;2024-01-07T00:37:58;93398.50;;;8.62;68.95
40205;BME280;26963;42.666;23.366;2024-01-07T00:40:24;93296.56;;;7.92;68.42
40205;BME280;26963;42.666;23.366;2024-01-07T00:42:50;93397.88;;;8.65;67.43
40205;BME280;26963;42.666;23.366;2024-01-07T00:45:17;93387.06;;;8.62;67.99
40205;BME280;26963;42.666;23.366;2024-01-07T00:47:42;93396.66;;;8.54;67.57
40205;BME280;26963;42.666;23.366;2024-01-07T00:50:08;93377.34;;;8.40;68.91
40205;BME280;26963;42.666;23.366;2024-01-07T00:52:34;93361.50;;;8.43;67.93
40205;BME280;26963;42.666;23.366;2024-01-07T00:55:03;93312.03;;;8.16;67.33
40205;BME280;26963;42.666;23.366;2024-01-07T00:57:29;93350.09;;;8.25;66.04
40205;BME280;26963;42.666;23.366;2024-01-07T00:59:55;93353.84;;;8.33;65.92
40205;BME280;26963;42.666;23.366;2024-01-07T01:02:21;93352.50;;;8.00;66.85
40205;BME280;26963;42.666;23.366;2024-01-07T01:04:48;93371.25;;;7.95;68.29
40205;BME280;26963;42.666;23.366;2024-01-07T01:07:14;93376.28;;;8.06;69.95
40205;BME280;26963;42.666;23.366;2024-01-07T01:09:40;93377.50;;;8.26;68.50
40205;BME280;26963;42.666;23.366;2024-01-07T01:12:05;93352.59;;;8.30;67.43
40205;BME280;26963;42.666;23.366;2024-01-07T01:14:31;93315.81;;;8.06;67.25
40205;BME280;26963;42.666;23.366;2024-01-07T01:16:56;93333.19;;;8.12;65.75
40205;BME280;26963;42.666;23.366;2024-01-07T01:19:23;93339.28;;;8.13;66.63
40205;BME280;26963;42.666;23.366;2024-01-07T01:21:49;93340.56;;;8.07;67.11
40205;BME280;26963;42.666;23.366;2024-01-07T01:24:14;93293.59;;;7.76;68.48
40205;BME280;26963;42.666;23.366;2024-01-07T01:26:40;93240.69;;;7.65;67.98
40205;BME280;26963;42.666;23.366;2024-01-07T01:29:05;93298.88;;;8.20;66.57
40205;BME280;26963;42.666;23.366;2024-01-07T01:31:31;93291.00;;;8.23;66.76
40205;BME280;26963;42.666;23.366;2024-01-07T01:33:57;93281.50;;;8.05;64.94
40205;BME280;26963;42.666;23.366;2024-01-07T01:36:22;93287.31;;;7.89;67.31
40205;BME280;26963;42.666;23.366;2024-01-07T01:38:48;93286.38;;;7.85;67.95
40205;BME280;26963;42.666;23.366;2024-01-07T01:41:14;93270.72;;;7.75;68.80
40205;BME280;26963;42.666;23.366;2024-01-07T01:43:40;93186.38;;;7.40;67.86
40205;BME280;26963;42.666;23.366;2024-01-07T01:46:06;93257.38;;;8.10;67.49
40205;BME280;26963;42.666;23.366;2024-01-07T01:48:32;93237.50;;;7.98;67.23
40205;BME280;26963;42.666;23.366;2024-01-07T01:50:58;93227.97;;;7.80;67.11
40205;BME280;26963;42.666;23.366;2024-01-07T01:53:26;93221.25;;;7.65;69.14
40205;BME280;26963;42.666;23.366;2024-01-07T01:55:52;93217.97;;;7.77;69.18
40205;BME280;26963;42.666;23.366;2024-01-07T01:58:23;93235.31;;;7.92;69.67
40205;BME280;26963;42.666;23.366;2024-01-07T02:00:48;93160.69;;;7.53;69.74
40205;BME280;26963;42.666;23.366;2024-01-07T02:03:16;93214.91;;;8.05;68.96
40205;BME280;26963;42.666;23.366;2024-01-07T02:05:42;93236.22;;;8.05;69.53
40205;BME280;26963;42.666;23.366;2024-01-07T02:08:10;93248.28;;;8.02;71.95
40205;BME280;26963;42.666;23.366;2024-01-07T02:10:36;93175.88;;;7.61;72.53
40205;BME280;26963;42.666;23.366;2024-01-07T02:13:04;93241.22;;;8.15;73.08
40205;BME280;26963;42.666;23.366;2024-01-07T02:15:30;93217.94;;;8.33;72.18
40205;BME280;26963;42.666;23.366;2024-01-07T02:17:56;93220.38;;;8.56;73.03
40205;BME280;26963;42.666;23.366;2024-01-07T02:20:22;93152.97;;;8.16;71.51
40205;BME280;26963;42.666;23.366;2024-01-07T02:22:47;93195.88;;;8.62;74.07
40205;BME280;26963;42.666;23.366;2024-01-07T02:25:13;93189.25;;;8.69;73.65
40205;BME280;26963;42.666;23.366;2024-01-07T02:27:38;93162.88;;;8.76;74.52
40205;BME280;26963;42.666;23.366;2024-01-07T02:30:05;93136.28;;;8.88;69.87
40205;BME280;26963;42.666;23.366;2024-01-07T02:32:30;93103.38;;;8.63;69.72
40205;BME280;26963;42.666;23.366;2024-01-07T02:35:01;93127.75;;;8.95;68.66
40205;BME280;26963;42.666;23.366;2024-01-07T02:37:27;93121.97;;;8.72;70.87
40205;BME280;26963;42.666;23.366;2024-01-07T02:39:53;93115.38;;;8.48;69.90
40205;BME280;26963;42.666;23.366;2024-01-07T02:42:18;93075.66;;;8.25;71.34
40205;BME280;26963;42.666;23.366;2024-01-07T02:44:44;93085.69;;;8.28;71.19
40205;BME280;26963;42.666;23.366;2024-01-07T02:47:09;93081.00;;;8.25;71.34
40205;BME280;26963;42.666;23.366;2024-01-07T02:49:35;93088.38;;;8.28;70.58
40205;BME280;26963;42.666;23.366;2024-01-07T02:52:01;93159.34;;;8.63;70.59
40205;BME280;26963;42.666;23.366;2024-01-07T02:54:26;93073.66;;;7.92;71.01
40205;BME280;26963;42.666;23.366;2024-01-07T02:56:52;93125.47;;;8.33;74.17
40205;BME280;26963;42.666;23.366;2024-01-07T02:59:19;93157.59;;;8.67;73.72
40205;BME280;26963;42.666;23.366;2024-01-07T03:01:45;93081.66;;;8.22;74.03
40205;BME280;26963;42.666;23.366;2024-01-07T03:04:13;93172.78;;;8.96;74.15
40205;BME280;26963;42.666;23.366;2024-01-07T03:06:39;93173.09;;;8.95;73.60
40205;BME280;26963;42.666;23.366;2024-01-07T03:09:05;93162.38;;;9.04;73.99
40205;BME280;26963;42.666;23.366;2024-01-07T03:11:30;93153.66;;;8.94;76.05
40205;BME280;26963;42.666;23.366;2024-01-07T03:13:56;93107.03;;;8.79;74.37
40205;BME280;26963;42.666;23.366;2024-01-07T03:16:23;93166.28;;;9.27;74.36
40205;BME280;26963;42.666;23.366;2024-01-07T03:18:49;93090.28;;;8.91;72.67
40205;BME280;26963;42.666;23.366;2024-01-07T03:21:22;93149.75;;;9.13;72.18
40205;BME280;26963;42.666;23.366;2024-01-07T03:23:49;93157.72;;;9.01;74.17
40205;BME280;26963;42.666;23.366;2024-01-07T03:26:16;93157.72;;;9.01;76.12
40205;BME280;26963;42.666;23.366;2024-01-07T03:28:42;93163.16;;;9.25;75.05
40205;BME280;26963;42.666;23.366;2024-01-07T03:31:11;93170.88;;;9.39;75.25
40205;BME280;26963;42.666;23.366;2024-01-07T03:33:38;93174.97;;;9.58;75.09
40205;BME280;26963;42.666;23.366;2024-01-07T03:36:08;93172.84;;;9.63;75.10
40205;BME280;26963;42.666;23.366;2024-01-07T03:38:34;93173.09;;;9.71;75.19
40205;BME280;26963;42.666;23.366;2024-01-07T03:41:00;93146.06;;;9.72;74.69
40205;BME280;26963;42.666;23.366;2024-01-07T03:43:25;93166.72;;;9.96;72.85
40205;BME280;26963;42.666;23.366;2024-01-07T03:45:51;93059.75;;;9.35;71.63
40205;BME280;26963;42.666;23.366;2024-01-07T03:48:16;93154.56;;;9.99;70.11
40205;BME280;26963;42.666;23.366;2024-01-07T03:50:42;93147.97;;;9.72;70.08
40205;BME280;26963;42.666;23.366;2024-01-07T03:53:08;93104.41;;;9.46;70.44
40205;BME280;26963;42.666;23.366;2024-01-07T03:55:34;93133.91;;;9.62;70.57
40205;BME280;26963;42.666;23.366;2024-01-07T03:58:00;93156.41;;;9.74;70.14
40205;BME280;26963;42.666;23.366;2024-01-07T04:00:26;93143.28;;;9.69;70.03
40205;BME280;26963;42.666;23.366;2024-01-07T04:02:51;93167.56;;;9.76;70.16
40205;BME280;26963;42.666;23.366;2024-01-07T04:05:17;93115.59;;;9.40;70.07
40205;BME280;26963;42.666;23.366;2024-01-07T04:07:42;93140.78;;;9.51;69.92
40205;BME280;26963;42.666;23.366;2024-01-07T04:10:08;93123.31;;;9.41;71.22
40205;BME280;26963;42.666;23.366;2024-01-07T04:12:34;93104.66;;;9.20;71.49
40205;BME280;26963;42.666;23.366;2024-01-07T04:14:59;93137.22;;;9.47;70.94
40205;BME280;26963;42.666;23.366;2024-01-07T04:17:25;93113.13;;;9.35;71.40
40205;BME280;26963;42.666;23.366;2024-01-07T04:19:51;93088.16;;;9.18;71.56
40205;BME280;26963;42.666;23.366;2024-01-07T04:22:17;93094.03;;;9.33;72.35
40205;BME280;26963;42.666;23.366;2024-01-07T04:24:43;93089.78;;;9.32;71.79
40205;BME280;26963;42.666;23.366;2024-01-07T04:27:09;93070.63;;;9.17;71.53
40205;BME280;26963;42.666;23.366;2024-01-07T04:29:35;93093.84;;;9.50;71.58
40205;BME280;26963;42.666;23.366;2024-01-07T04:32:01;93112.78;;;9.70;71.57
40205;BME280;26963;42.666;23.366;2024-01-07T04:34:26;93086.75;;;9.67;71.29
40205;BME280;26963;42.666;23.366;2024-01-07T04:36:52;93101.03;;;9.83;71.14
40205;BME280;26963;42.666;23.366;2024-01-07T04:39:17;93089.78;;;9.90;70.88
40205;BME280;26963;42.666;23.366;2024-01-07T04:41:43;93117.97;;;10.00;71.26
40205;BME280;26963;42.666;23.366;2024-01-07T04:44:09;93103.94;;;10.03;70.50
40205;BME280;26963;42.666;23.366;2024-01-07T04:46:37;93030.88;;;9.49;70.57
40205;BME280;26963;42.666;23.366;2024-01-07T04:49:03;93091.25;;;10.00;70.55
40205;BME280;26963;42.666;23.366;2024-01-07T04:51:28;93084.34;;;9.99;69.91
40205;BME280;26963;42.666;23.366;2024-01-07T04:53:54;93104.25;;;9.89;70.13
40205;BME280;26963;42.666;23.366;2024-01-07T04:56:20;93044.88;;;9.34;70.88
40205;BME280;26963;42.666;23.366;2024-01-07T04:58:46;93117.69;;;9.80;71.34
40205;BME280;26963;42.666;23.366;2024-01-07T05:01:11;93083.63;;;9.65;71.77
40205;BME280;26963;42.666;23.366;2024-01-07T05:03:37;93113.94;;;9.81;70.93
40205;BME280;26963;42.666;23.366;2024-01-07T05:06:03;93088.97;;;9.65;71.27
40205;BME280;26963;42.666;23.366;2024-01-07T05:08:29;93088.09;;;9.60;71.48
40205;BME280;26963;42.666;23.366;2024-01-07T05:10:56;93005.53;;;8.97;70.53
40205;BME280;26963;42.666;23.366;2024-01-07T05:13:22;93039.66;;;9.04;71.22
40205;BME280;26963;42.666;23.366;2024-01-07T05:15:47;93016.34;;;9.01;71.23
40205;BME280;26963;42.666;23.366;2024-01-07T05:18:22;92876.34;;;7.85;71.41
40205;BME280;26963;42.666;23.366;2024-01-07T05:20:49;92902.41;;;7.79;72.40
40205;BME280;26963;42.666;23.366;2024-01-07T05:23:14;93113.50;;;9.12;73.71
40205;BME280;26963;42.666;23.366;2024-01-07T05:25:42;93110.06;;;9.11;73.11
40205;BME280;26963;42.666;23.366;2024-01-07T05:28:08;93117.50;;;9.06;73.55
40205;BME280;26963;42.666;23.366;2024-01-07T05:30:33;93113.63;;;9.16;73.90
40205;BME280;26963;42.666;23.366;2024-01-07T05:32:59;93094.59;;;9.05;73.41
40205;BME280;26963;42.666;23.366;2024-01-07T05:35:24;93112.25;;;9.09;73.45
40205;BME280;26963;42.666;23.366;2024-01-07T05:37:50;93105.25;;;9.05;73.98
40205;BME280;26963;42.666;23.366;2024-01-07T05:40:15;93095.03;;;9.07;73.81
40205;BME280;26963;42.666;23.366;2024-01-07T05:42:41;93087.22;;;9.02;73.70
40205;BME280;26963;42.666;23.366;2024-01-07T05:45:07;93093.03;;;9.04;74.02
40205;BME280;26963;42.666;23.366;2024-01-07T05:47:32;93049.31;;;8.75;74.47
40205;BME280;26963;42.666;23.366;2024-01-07T05:49:58;93109.97;;;9.20;74.14
40205;BME280;26963;42.666;23.366;2024-01-07T05:52:24;93115.66;;;9.19;73.74
40205;BME280;26963;42.666;23.366;2024-01-07T05:54:49;93111.97;;;9.23;73.34
40205;BME280;26963;42.666;23.366;2024-01-07T05:57:15;93121.88;;;9.23;73.19
40205;BME280;26963;42.666;23.366;2024-01-07T05:59:41;93047.53;;;8.67;72.92
40205;BME280;26963;42.666;23.366;2024-01-07T06:02:06;93132.56;;;9.23;73.35
40205;BME280;26963;42.666;23.366;2024-01-07T06:04:32;93050.91;;;8.76;73.15
40205;BME280;26963;42.666;23.366;2024-01-07T06:06:57;93090.28;;;9.12;72.69
40205;BME280;26963;42.666;23.366;2024-01-07T06:09:23;93106.56;;;9.32;72.92
40205;BME280;26963;42.666;23.366;2024-01-07T06:11:50;93107.38;;;9.33;73.09
40205;BME280;26963;42.666;23.366;2024-01-07T06:14:15;93040.97;;;8.97;73.07
40205;BME280;26963;42.666;23.366;2024-01-07T06:16:41;93098.69;;;9.36;72.30
40205;BME280;26963;42.666;23.366;2024-01-07T06:19:08;93047.13;;;8.77;73.04
40205;BME280;26963;42.666;23.366;2024-01-07T06:21:33;93085.47;;;9.06;73.45
40205;BME280;26963;42.666;23.366;2024-01-07T06:23:59;93091.72;;;9.10;73.14
40205;BME280;26963;42.666;23.366;2024-01-07T06:26:24;93088.59;;;9.08;73.38
40205;BME280;26963;42.666;23.366;2024-01-07T06:28:50;93095.75;;;9.16;72.97
40205;BME280;26963;42.666;23.366;2024-01-07T06:31:15;93095.47;;;9.30;72.60
40205;BME280;26963;42.666;23.366;2024-01-07T06:33:41;93015.13;;;8.77;72.38
40205;BME280;26963;42.666;23.366;2024-01-07T06:36:08;93086.88;;;9.24;72.43
40205;BME280;26963;42.666;23.366;2024-01-07T06:38:33;93108.31;;;9.49;72.11
40205;BME280;26963;42.666;23.366;2024-01-07T06:40:59;93079.31;;;9.26;71.99
40205;BME280;26963;42.666;23.366;2024-01-07T06:43:29;93036.53;;;9.02;71.17
40205;BME280;26963;42.666;23.366;2024-01-07T06:45:55;93106.75;;;9.48;71.85
40205;BME280;26963;42.666;23.366;2024-01-07T06:48:20;93044.34;;;9.07;71.30
40205;BME280;26963;42.666;23.366;2024-01-07T06:50:46;93147.03;;;9.68;71.10
40205;BME280;26963;42.666;23.366;2024-01-07T06:53:11;93107.00;;;9.55;71.39
40205;BME280;26963;42.666;23.366;2024-01-07T06:55:37;93132.06;;;9.75;70.99
40205;BME280;26963;42.666;23.366;2024-01-07T06:58:03;93115.69;;;9.65;70.90
40205;BME280;26963;42.666;23.366;2024-01-07T07:00:29;93098.44;;;9.62;70.98
40205;BME280;26963;42.666;23.366;2024-01-07T07:02:55;93138.00;;;9.93;70.43
40205;BME280;26963;42.666;23.366;2024-01-07T07:05:20;93117.19;;;9.87;69.73
40205;BME280;26963;42.666;23.366;2024-01-07T07:07:46;93126.94;;;9.83;69.88
40205;BME280;26963;42.666;23.366;2024-01-07T07:10:11;93135.19;;;9.90;70.31
40205;BME280;26963;42.666;23.366;2024-01-07T07:12:37;93134.53;;;9.93;70.49
40205;BME280;26963;42.666;23.366;2024-01-07T07:15:03;93102.47;;;9.81;70.47
40205;BME280;26963;42.666;23.366;2024-01-07T07:17:28;93006.50;;;9.38;70.08
40205;BME280;26963;42.666;23.366;2024-01-07T07:19:54;93074.97;;;9.80;70.82
40205;BME280;26963;42.666;23.366;2024-01-07T07:22:20;93094.25;;;9.86;70.46
40205;BME280;26963;42.666;23.366;2024-01-07T07:24:45;93025.75;;;9.44;70.27
40205;BME280;26963;42.666;23.366;2024-01-07T07:27:11;93027.78;;;9.59;70.54
40205;BME280;26963;42.666;23.366;2024-01-07T07:29:36;93110.88;;;10.28;69.84
40205;BME280;26963;42.666;23.366;2024-01-07T07:32:02;93097.03;;;10.26;69.64
40205;BME280;26963;42.666;23.366;2024-01-07T07:34:28;93118.88;;;10.53;68.93
40205;BME280;26963;42.666;23.366;2024-01-07T07:36:54;93119.34;;;10.55;68.47
40205;BME280;26963;42.666;23.366;2024-01-07T07:39:21;93121.78;;;10.73;68.06
40205;BME280;26963;42.666;23.366;2024-01-07T07:41:46;93068.31;;;10.36;67.64
40205;BME280;26963;42.666;23.366;2024-01-07T07:44:13;93125.31;;;10.89;67.12
40205;BME280;26963;42.666;23.366;2024-01-07T07:46:39;93090.31;;;10.82;66.65
40205;BME280;26963;42.666;23.366;2024-01-07T07:49:04;93116.97;;;11.07;66.11
40205;BME280;26963;42.666;23.366;2024-01-07T07:51:30;93052.22;;;10.73;66.01
40205;BME280;26963;42.666;23.366;2024-01-07T07:53:56;93006.81;;;10.48;66.00
40205;BME280;26963;42.666;23.366;2024-01-07T07:56:23;93001.97;;;10.66;65.48
40205;BME280;26963;42.666;23.366;2024-01-07T07:58:48;93105.09;;;11.33;64.81
40205;BME280;26963;42.666;23.366;2024-01-07T08:01:17;93103.06;;;11.30;64.21
40205;BME280;26963;42.666;23.366;2024-01-07T08:03:43;93080.06;;;11.13;63.66
40205;BME280;26963;42.666;23.366;2024-01-07T08:06:09;93021.28;;;10.47;64.59
40205;BME280;26963;42.666;23.366;2024-01-07T08:08:34;93100.78;;;10.75;65.42
40205;BME280;26963;42.666;23.366;2024-01-07T08:11:00;93103.47;;;10.63;66.35
40205;BME280;26963;42.666;23.366;2024-01-07T08:13:26;93048.72;;;10.19;66.87
40205;BME280;26963;42.666;23.366;2024-01-07T08:15:51;93036.16;;;10.07;67.37
40205;BME280;26963;42.666;23.366;2024-01-07T08:18:17;93091.50;;;10.44;67.30
40205;BME280;26963;42.666;23.366;2024-01-07T08:20:43;93085.69;;;10.54;67.09
40205;BME280;26963;42.666;23.366;2024-01-07T08:23:08;93113.81;;;10.76;67.10
40205;BME280;26963;42.666;23.366;2024-01-07T08:25:34;93029.22;;;10.31;66.48
40205;BME280;26963;42.666;23.366;2024-01-07T08:27:59;93092.06;;;10.90;65.91
40205;BME280;26963;42.666;23.366;2024-01-07T08:30:34;93105.75;;;11.01;65.90
40205;BME280;26963;42.666;23.366;2024-01-07T08:33:28;93072.34;;;10.83;65.64
40205;BME280;26963;42.666;23.366;2024-01-07T08:35:56;93109.44;;;10.97;66.08
40205;BME280;26963;42.666;23.366;2024-01-07T08:38:22;93070.28;;;10.64;66.54
40205;BME280;26963;42.666;23.366;2024-01-07T08:40:48;93050.56;;;10.56;66.64
40205;BME280;26963;42.666;23.366;2024-01-07T08:43:13;93097.84;;;10.92;67.29
40205;BME280;26963;42.666;23.366;2024-01-07T08:45:39;93004.16;;;10.36;67.25
40205;BME280;26963;42.666;23.366;2024-01-07T08:48:05;93102.31;;;11.01;67.53
40205;BME280;26963;42.666;23.366;2024-01-07T08:50:31;93029.50;;;10.67;66.96
40205;BME280;26963;42.666;23.366;2024-01-07T08:52:57;93092.38;;;11.30;66.87
40205;BME280;26963;42.666;23.366;2024-01-07T08:55:23;93086.50;;;11.40;66.28
40205;BME280;26963;42.666;23.366;2024-01-07T08:57:49;93023.50;;;11.14;65.88
40205;BME280;26963;42.666;23.366;2024-01-07T09:00:15;93031.69;;;11.50;65.33
40205;BME280;26963;42.666;23.366;2024-01-07T09:02:41;93084.97;;;11.99;64.81
40205;BME280;26963;42.666;23.366;2024-01-07T09:05:07;93091.72;;;12.09;65.05
40205;BME280;26963;42.666;23.366;2024-01-07T09:07:43;93066.44;;;11.94;64.65
40205;BME280;26963;42.666;23.366;2024-01-07T09:10:12;93090.94;;;12.24;64.30
40205;BME280;26963;42.666;23.366;2024-01-07T09:12:47;92812.59;;;10.56;63.24
40205;BME280;26963;42.666;23.366;2024-01-07T09:15:18;93059.78;;;12.36;63.01
40205;BME280;26963;42.666;23.366;2024-01-07T09:17:47;93010.53;;;12.09;63.57
40205;BME280;26963;42.666;23.366;2024-01-07T09:20:13;93076.78;;;12.60;64.17
40205;BME280;26963;42.666;23.366;2024-01-07T09:22:41;93023.78;;;12.37;62.87
40205;BME280;26963;42.666;23.366;2024-01-07T09:25:11;93084.88;;;12.99;61.50
40205;BME280;26963;42.666;23.366;2024-01-07T09:27:36;93031.88;;;12.96;60.85
40205;BME280;26963;42.666;23.366;2024-01-07T09:30:02;93080.38;;;13.42;59.37
40205;BME280;26963;42.666;23.366;2024-01-07T09:32:30;93097.47;;;13.53;58.88
40205;BME280;26963;42.666;23.366;2024-01-07T09:35:01;93048.34;;;13.14;59.00
40205;BME280;26963;42.666;23.366;2024-01-07T09:37:33;92929.22;;;12.40;59.31
40205;BME280;26963;42.666;23.366;2024-01-07T09:40:02;92997.44;;;12.78;58.72
40205;BME280;26963;42.666;23.366;2024-01-07T09:42:32;93007.75;;;12.76;58.92
40205;BME280;26963;42.666;23.366;2024-01-07T09:45:04;93030.53;;;13.05;59.09
40205;BME280;26963;42.666;23.366;2024-01-07T09:47:35;93051.09;;;12.98;59.47
40205;BME280;26963;42.666;23.366;2024-01-07T09:50:03;93061.44;;;13.15;58.75
40205;BME280;26963;42.666;23.366;2024-01-07T09:52:32;93074.72;;;13.28;58.70
40205;BME280;26963;42.666;23.366;2024-01-07T09:55:02;93060.19;;;13.32;57.95
40205;BME280;26963;42.666;23.366;2024-01-07T09:57:30;93076.88;;;13.61;56.75
40205;BME280;26963;42.666;23.366;2024-01-07T09:59:55;93084.41;;;13.75;57.14
40205;BME280;26963;42.666;23.366;2024-01-07T10:02:21;93037.66;;;13.57;56.75
40205;BME280;26963;42.666;23.366;2024-01-07T10:04:50;93056.59;;;13.87;55.11
40205;BME280;26963;42.666;23.366;2024-01-07T10:07:16;92976.28;;;13.16;53.19
40205;BME280;26963;42.666;23.366;2024-01-07T10:09:43;93069.63;;;13.42;54.51
40205;BME280;26963;42.666;23.366;2024-01-07T10:12:08;93039.28;;;13.22;54.34
40205;BME280;26963;42.666;23.366;2024-01-07T10:14:34;93068.22;;;13.29;54.45
40205;BME280;26963;42.666;23.366;2024-01-07T10:17:00;93064.16;;;12.99;55.15
40205;BME280;26963;42.666;23.366;2024-01-07T10:19:26;93014.09;;;12.87;54.88
40205;BME280;26963;42.666;23.366;2024-01-07T10:24:26;93015.63;;;12.49;56.63
40205;BME280;26963;42.666;23.366;2024-01-07T10:26:52;93048.63;;;12.69;57.02
40205;BME280;26963;42.666;23.366;2024-01-07T10:29:18;93009.44;;;12.65;57.31
40205;BME280;26963;42.666;23.366;2024-01-07T10:31:43;93007.25;;;12.90;56.67
40205;BME280;26963;42.666;23.366;2024-01-07T10:34:13;93000.78;;;13.14;55.88
40205;BME280;26963;42.666;23.366;2024-01-07T10:36:40;92910.13;;;12.84;55.30
40205;BME280;26963;42.666;23.366;2024-01-07T10:39:08;92935.91;;;12.89;55.91
40205;BME280;26963;42.666;23.366;2024-01-07T10:41:36;93018.91;;;13.17;56.31
40205;BME280;26963;42.666;23.366;2024-01-07T10:44:02;93005.03;;;12.96;56.30
40205;BME280;26963;42.666;23.366;2024-01-07T10:46:29;93007.59;;;13.08;56.67
40205;BME280;26963;42.666;23.366;2024-01-07T10:49:00;92810.63;;;11.52;56.26
40205;BME280;26963;42.666;23.366;2024-01-07T10:51:28;93003.50;;;12.95;56.88
40205;BME280;26963;42.666;23.366;2024-01-07T10:53:55;92986.97;;;12.53;57.46
40205;BME280;26963;42.666;23.366;2024-01-07T10:56:24;93038.22;;;12.68;58.06
40205;BME280;26963;42.666;23.366;2024-01-07T10:58:54;92996.56;;;12.54;58.18
40205;BME280;26963;42.666;23.366;2024-01-07T11:01:20;93008.44;;;12.93;57.38
40205;BME280;26963;42.666;23.366;2024-01-07T11:04:04;93006.25;;;12.98;56.97
40205;BME280;26963;42.666;23.366;2024-01-07T11:06:55;92992.63;;;12.87;56.60
40205;BME280;26963;42.666;23.366;2024-01-07T11:09:36;93000.97;;;12.82;56.74
40205;BME280;26963;42.666;23.366;2024-01-07T11:12:04;93025.25;;;13.09;55.47
40205;BME280;26963;42.666;23.366;2024-01-07T11:17:04;93008.00;;;13.10;53.78
40205;BME280;26963;42.666;23.366;2024-01-07T11:19:30;92988.78;;;13.08;53.48
40205;BME280;26963;42.666;23.366;2024-01-07T11:22:21;93022.56;;;13.29;53.40
40205;BME280;26963;42.666;23.366;2024-01-07T11:24:48;93008.56;;;13.19;53.71
40205;BME280;26963;42.666;23.366;2024-01-07T11:27:15;92976.72;;;12.98;53.85
40205;BME280;26963;42.666;23.366;2024-01-07T11:29:41;92985.81;;;13.13;53.95
40205;BME280;26963;42.666;23.366;2024-01-07T11:32:07;93013.06;;;13.35;53.85
40205;BME280;26963;42.666;23.366;2024-01-07T11:34:42;92978.72;;;13.25;53.67
40205;BME280;26963;42.666;23.366;2024-01-07T11:37:15;92947.25;;;13.02;53.71
40205;BME280;26963;42.666;23.366;2024-01-07T11:39:45;92991.84;;;13.30;53.70
40205;BME280;26963;42.666;23.366;2024-01-07T11:42:11;92969.47;;;13.22;53.63
40205;BME280;26963;42.666;23.366;2024-01-07T11:44:46;92982.84;;;13.38;53.13
40205;BME280;26963;42.666;23.366;2024-01-07T11:47:12;92956.41;;;13.20;53.28
40205;BME280;26963;42.666;23.366;2024-01-07T11:49:39;92969.53;;;13.26;53.49
40205;BME280;26963;42.666;23.366;2024-01-07T11:52:05;92948.66;;;13.15;52.87
40205;BME280;26963;42.666;23.366;2024-01-07T11:54:31;93013.19;;;13.62;52.37
40205;BME280;26963;42.666;23.366;2024-01-07T11:56:57;93014.00;;;13.66;52.09
40205;BME280;26963;42.666;23.366;2024-01-07T11:59:23;92999.19;;;13.52;51.24
40205;BME280;26963;42.666;23.366;2024-01-07T12:01:49;93011.72;;;13.68;51.29
40205;BME280;26963;42.666;23.366;2024-01-07T12:04:14;93013.28;;;13.69;51.68
40205;BME280;26963;42.666;23.366;2024-01-07T12:06:40;92983.06;;;13.52;51.69
40205;BME280;26963;42.666;23.366;2024-01-07T12:09:05;93004.91;;;13.74;51.38
40205;BME280;26963;42.666;23.366;2024-01-07T12:11:32;92970.50;;;13.57;51.20
40205;BME280;26963;42.666;23.366;2024-01-07T12:13:58;92991.47;;;13.74;51.14
40205;BME280;26963;42.666;23.366;2024-01-07T12:16:25;93000.81;;;13.80;51.38
40205;BME280;26963;42.666;23.366;2024-01-07T12:18:51;92995.78;;;13.79;51.37
40205;BME280;26963;42.666;23.366;2024-01-07T12:21:20;92937.84;;;13.35;51.13
40205;BME280;26963;42.666;23.366;2024-01-07T12:23:50;93013.53;;;13.83;50.95
40205;BME280;26963;42.666;23.366;2024-01-07T12:26:19;93018.03;;;13.76;51.03
40205;BME280;26963;42.666;23.366;2024-01-07T12:28:52;92944.84;;;13.16;51.68
40205;BME280;26963;42.666;23.366;2024-01-07T12:31:19;93001.28;;;13.40;52.85
40205;BME280;26963;42.666;23.366;2024-01-07T12:33:46;93022.09;;;13.46;53.41
40205;BME280;26963;42.666;23.366;2024-01-07T12:36:12;93016.47;;;13.32;53.99
40205;BME280;26963;42.666;23.366;2024-01-07T12:38:37;92877.63;;;12.47;53.74
40205;BME280;26963;42.666;23.366;2024-01-07T12:41:06;93002.53;;;13.26;54.15
40205;BME280;26963;42.666;23.366;2024-01-07T12:43:33;93019.22;;;13.35;54.29
40205;BME280;26963;42.666;23.366;2024-01-07T12:45:58;92958.88;;;12.86;54.58
40205;BME280;26963;42.666;23.366;2024-01-07T12:48:30;93011.16;;;13.35;54.72
40205;BME280;26963;42.666;23.366;2024-01-07T12:50:56;93022.66;;;13.36;54.68
40205;BME280;26963;42.666;23.366;2024-01-07T12:53:22;92999.50;;;13.28;54.25
40205;BME280;26963;42.666;23.366;2024-01-07T12:55:48;93017.28;;;13.36;54.30
40205;BME280;26963;42.666;23.366;2024-01-07T12:58:14;92997.06;;;13.19;54.25